Time;durP1;ratioP1;P1;durP2;ratioP2;P2;SDS_P1;SDS_P2;PMS_P1;PMS_P2;Temp;Humidity;BMP_temperature;BMP_pressure;BME280_temperature;BME280_humidity;BME280_pressure;Samples;Min_cycle;Max_cycle;Signal;HPM_P1;HPM_P2
2022/04/11 00:02:00;;;;;;;6.15;3.85;;;3.60;99.90;;;;;;5007346;28;20042;-84
2022/04/11 00:04:27;;;;;;;8.50;4.10;;;3.50;99.90;;;;;;5004383;28;20046;-84
2022/04/11 00:06:53;;;;;;;5.90;3.90;;;3.50;99.90;;;;;;5005121;28;20038;-84
2022/04/11 00:09:19;;;;;;;6.03;3.63;;;3.50;99.90;;;;;;5005969;28;20042;-84
2022/04/11 00:11:50;;;;;;;8.45;3.88;;;3.50;99.90;;;;;;5003650;28;20049;-85
2022/04/11 00:14:16;;;;;;;7.13;3.90;;;3.50;99.90;;;;;;5003943;28;20745;-84
2022/04/11 00:16:41;;;;;;;7.57;3.80;;;3.50;99.90;;;;;;5004076;28;20037;-84
2022/04/11 00:19:08;;;;;;;7.85;4.32;;;3.50;99.90;;;;;;5004571;28;20507;-84
2022/04/11 00:21:34;;;;;;;8.02;3.83;;;3.50;99.90;;;;;;5005936;28;20095;-84
2022/04/11 00:24:00;;;;;;;6.18;3.83;;;3.40;99.90;;;;;;5006606;28;20033;-84
2022/04/11 00:26:26;;;;;;;6.32;3.35;;;3.40;99.90;;;;;;5003503;28;20050;-84
2022/04/11 00:28:53;;;;;;;6.53;3.80;;;3.40;99.90;;;;;;5003029;28;20034;-84
2022/04/11 00:31:19;;;;;;;8.00;3.85;;;3.40;99.90;;;;;;5003466;28;20116;-85
2022/04/11 00:33:44;;;;;;;7.28;3.95;;;3.40;99.90;;;;;;5002761;28;20186;-84
2022/04/11 00:36:10;;;;;;;6.65;3.85;;;3.40;99.90;;;;;;5005101;28;20050;-85
2022/04/11 00:38:36;;;;;;;5.95;4.00;;;3.40;99.90;;;;;;5005238;28;20053;-84
2022/04/11 00:41:01;;;;;;;6.75;3.92;;;3.30;99.90;;;;;;5004394;28;20042;-85
2022/04/11 00:43:36;;;;;;;4.75;3.70;;;3.30;99.90;;;;;;5003674;28;20050;-84
2022/04/11 00:46:02;;;;;;;5.28;3.78;;;3.30;99.90;;;;;;5005701;28;20137;-84
2022/04/11 00:48:28;;;;;;;7.57;3.38;;;3.30;99.90;;;;;;5005544;28;20073;-84
2022/04/11 00:50:58;;;;;;;6.35;3.55;;;3.30;99.90;;;;;;5001281;28;20042;-84
2022/04/11 00:53:24;;;;;;;7.57;3.42;;;3.30;99.90;;;;;;5004746;28;20679;-84
2022/04/11 00:55:52;;;;;;;6.05;3.40;;;3.30;99.90;;;;;;5003052;28;20042;-84
2022/04/11 00:58:18;;;;;;;6.35;3.65;;;3.20;99.90;;;;;;5003439;28;20050;-84
2022/04/11 01:00:44;;;;;;;6.25;3.80;;;3.20;99.90;;;;;;5003939;28;20048;-84
2022/04/11 01:03:10;;;;;;;7.53;3.80;;;3.20;99.90;;;;;;5002739;28;20046;-85
2022/04/11 01:05:36;;;;;;;6.38;3.20;;;3.20;99.90;;;;;;5005769;28;20572;-84
2022/04/11 01:08:07;;;;;;;6.10;3.72;;;3.20;99.90;;;;;;5006209;28;20094;-85
2022/04/11 01:10:36;;;;;;;5.28;3.33;;;3.20;99.90;;;;;;5004058;28;20037;-85
2022/04/11 01:13:04;;;;;;;6.55;3.50;;;3.10;99.90;;;;;;5000773;28;20046;-85
2022/04/11 01:15:30;;;;;;;4.85;3.00;;;3.10;99.90;;;;;;5003846;28;20086;-84
2022/04/11 01:17:55;;;;;;;7.30;3.97;;;3.20;99.90;;;;;;5005302;28;20399;-84
2022/04/11 01:20:21;;;;;;;6.40;3.70;;;3.10;99.90;;;;;;5004615;28;20042;-85
2022/04/11 01:22:48;;;;;;;6.72;3.70;;;3.10;99.90;;;;;;5002613;28;20069;-85
2022/04/11 01:25:14;;;;;;;5.53;3.47;;;3.10;99.90;;;;;;5003984;28;20041;-85
2022/04/11 01:27:42;;;;;;;5.38;3.20;;;3.10;99.90;;;;;;5001040;28;20489;-84
2022/04/11 01:30:10;;;;;;;5.53;3.25;;;3.10;99.90;;;;;;5001570;28;20058;-85
2022/04/11 01:32:40;;;;;;;7.47;3.50;;;3.10;99.90;;;;;;5002506;28;20095;-85
2022/04/11 01:35:18;;;;;;;6.85;3.35;;;3.10;99.90;;;;;;4998585;28;20057;-85
2022/04/11 01:37:43;;;;;;;6.20;2.92;;;3.10;99.90;;;;;;5000649;28;20042;-85
2022/04/11 01:40:10;;;;;;;6.47;3.60;;;3.10;99.90;;;;;;5000407;28;20099;-85
2022/04/11 01:42:35;;;;;;;5.90;3.40;;;3.00;99.90;;;;;;5000577;28;20046;-84
2022/04/11 01:45:01;;;;;;;4.70;3.00;;;3.00;99.90;;;;;;5003985;28;20072;-84
2022/04/11 01:47:29;;;;;;;5.10;3.45;;;2.90;99.90;;;;;;5005780;28;20054;-84
2022/04/11 01:49:55;;;;;;;6.72;3.63;;;2.90;99.90;;;;;;5004857;28;20056;-85
2022/04/11 01:52:20;;;;;;;5.18;3.13;;;2.90;99.90;;;;;;5002363;28;20096;-84
2022/04/11 01:54:46;;;;;;;6.13;3.38;;;2.90;99.90;;;;;;5004154;28;20038;-85
2022/04/11 01:57:12;;;;;;;5.53;3.15;;;2.90;99.90;;;;;;5002334;28;20071;-84
2022/04/11 01:59:37;;;;;;;5.32;3.00;;;2.90;99.90;;;;;;5002556;28;20563;-84
2022/04/11 02:02:03;;;;;;;6.45;3.50;;;2.90;99.90;;;;;;5006081;28;20029;-85
2022/04/11 02:04:31;;;;;;;6.30;3.70;;;2.80;99.90;;;;;;5005008;28;20397;-85
2022/04/11 02:06:57;;;;;;;5.15;3.30;;;2.80;99.90;;;;;;5005638;28;20041;-85
2022/04/11 02:09:23;;;;;;;7.15;3.20;;;2.90;99.90;;;;;;5008366;28;20048;-84
2022/04/11 02:11:48;;;;;;;7.85;3.08;;;2.90;99.90;;;;;;5005094;28;20177;-85
2022/04/11 02:14:14;;;;;;;5.43;3.40;;;2.90;99.90;;;;;;5008299;28;20037;-85
2022/04/11 02:16:39;;;;;;;6.15;3.22;;;2.90;99.90;;;;;;5005108;28;20042;-84
2022/04/11 02:19:05;;;;;;;5.50;3.58;;;2.90;99.90;;;;;;5007030;28;20512;-85
2022/04/11 02:21:31;;;;;;;5.28;3.75;;;2.90;99.90;;;;;;5006078;28;20042;-85
2022/04/11 02:23:57;;;;;;;6.53;3.80;;;2.90;99.90;;;;;;5007357;28;20042;-85
2022/04/11 02:26:22;;;;;;;6.28;3.75;;;2.80;99.90;;;;;;5007236;28;20056;-85
2022/04/11 02:28:48;;;;;;;6.65;4.03;;;2.80;99.90;;;;;;5007113;28;20121;-85
2022/04/11 02:31:13;;;;;;;9.30;4.47;;;2.80;99.90;;;;;;5002998;28;20049;-85
2022/04/11 02:33:39;;;;;;;6.90;4.07;;;2.80;99.90;;;;;;5007369;28;20564;-85
2022/04/11 02:36:05;;;;;;;6.70;4.30;;;2.90;99.90;;;;;;5006251;28;20046;-85
2022/04/11 02:38:36;;;;;;;4.93;3.63;;;2.80;99.90;;;;;;5003129;28;20046;-84
2022/04/11 02:41:02;;;;;;;6.20;3.90;;;2.80;99.90;;;;;;5005779;28;20205;-84
2022/04/11 02:43:27;;;;;;;7.00;3.58;;;2.90;99.90;;;;;;5008000;28;20179;-84
2022/04/11 02:45:53;;;;;;;6.40;4.07;;;2.90;99.90;;;;;;5004197;28;20050;-84
2022/04/11 02:48:18;;;;;;;7.45;4.20;;;2.90;99.90;;;;;;5003801;28;20057;-84
2022/04/11 02:50:44;;;;;;;5.90;3.75;;;2.90;99.90;;;;;;5002236;28;20103;-85
2022/04/11 02:53:10;;;;;;;7.03;4.00;;;2.80;99.90;;;;;;5004016;28;20045;-84
2022/04/11 02:55:35;;;;;;;7.55;4.07;;;2.90;99.90;;;;;;5108177;27;20145;-85
2022/04/11 02:58:01;;;;;;;7.32;4.00;;;2.90;99.90;;;;;;5006631;28;20563;-85
2022/04/11 03:00:27;;;;;;;8.10;4.55;;;2.90;99.90;;;;;;5005464;28;20073;-84
2022/04/11 03:02:52;;;;;;;7.90;4.50;;;2.90;99.90;;;;;;5004922;28;20048;-85
2022/04/11 03:05:18;;;;;;;7.70;4.72;;;2.90;99.90;;;;;;5006161;28;20053;-85
2022/04/11 03:07:43;;;;;;;7.88;4.78;;;2.90;99.90;;;;;;5004825;28;20042;-85
2022/04/11 03:10:09;;;;;;;9.57;4.93;;;2.90;99.90;;;;;;5017395;28;20386;-81
2022/04/11 03:12:35;;;;;;;7.65;4.38;;;2.90;99.90;;;;;;5006867;28;20641;-85
2022/04/11 03:15:01;;;;;;;8.77;5.10;;;2.90;99.90;;;;;;5001360;28;20049;-84
2022/04/11 03:17:26;;;;;;;10.77;5.18;;;2.90;99.90;;;;;;5006939;28;20060;-85
2022/04/11 03:19:52;;;;;;;8.10;4.78;;;3.00;99.90;;;;;;5004684;28;20106;-83
2022/04/11 03:22:17;;;;;;;6.97;4.78;;;3.00;99.90;;;;;;5003842;28;20065;-84
2022/04/11 03:24:43;;;;;;;7.05;4.90;;;2.90;99.90;;;;;;5006993;28;20038;-85
2022/04/11 03:27:09;;;;;;;6.93;4.47;;;2.90;99.90;;;;;;5006155;28;20121;-85
2022/04/11 03:29:34;;;;;;;8.55;4.63;;;2.90;99.90;;;;;;5003293;28;20560;-85
2022/04/11 03:32:00;;;;;;;6.82;4.10;;;2.80;99.90;;;;;;5012907;28;20077;-84
2022/04/11 03:34:26;;;;;;;9.13;4.50;;;2.80;99.90;;;;;;5004927;28;20452;-84
2022/04/11 03:36:51;;;;;;;8.50;4.32;;;2.80;99.90;;;;;;5007692;28;20064;-84
2022/04/11 03:39:17;;;;;;;7.13;4.15;;;2.70;99.90;;;;;;5006643;28;20034;-85
2022/04/11 03:41:45;;;;;;;7.45;4.47;;;2.70;99.90;;;;;;5006390;28;20042;-85
2022/04/11 03:44:11;;;;;;;7.50;4.72;;;2.70;99.90;;;;;;5006555;28;20042;-85
2022/04/11 03:46:40;;;;;;;6.97;3.95;;;2.70;99.90;;;;;;5005892;28;20087;-85
2022/04/11 03:49:06;;;;;;;8.95;4.38;;;2.70;99.90;;;;;;5006130;28;20058;-85
2022/04/11 03:51:32;;;;;;;11.77;5.33;;;2.60;99.90;;;;;;5006521;28;20041;-85
2022/04/11 03:53:58;;;;;;;8.15;4.85;;;2.60;99.90;;;;;;5014255;28;20107;-85
2022/04/11 03:56:24;;;;;;;7.20;4.43;;;2.60;99.90;;;;;;5006189;28;20038;-85
2022/04/11 03:58:50;;;;;;;8.88;4.68;;;2.60;99.90;;;;;;5002851;28;20430;-85
2022/04/11 04:01:16;;;;;;;7.75;4.43;;;2.60;99.90;;;;;;5003867;28;20156;-85
2022/04/11 04:03:41;;;;;;;7.57;4.57;;;2.60;99.90;;;;;;5007031;28;20042;-85
2022/04/11 04:06:07;;;;;;;6.60;4.07;;;2.60;99.90;;;;;;5002610;28;20488;-85
2022/04/11 04:08:33;;;;;;;6.45;4.60;;;2.60;99.90;;;;;;5105205;27;20065;-85
2022/04/11 04:10:59;;;;;;;7.53;4.50;;;2.60;99.90;;;;;;5004963;28;20050;-85
2022/04/11 04:13:25;;;;;;;8.35;4.57;;;2.60;99.90;;;;;;5003117;28;20497;-84
2022/04/11 04:15:50;;;;;;;9.85;4.97;;;2.60;99.90;;;;;;5002799;28;20042;-84
2022/04/11 04:18:16;;;;;;;10.63;4.75;;;2.60;99.90;;;;;;5006004;28;21337;-84
2022/04/11 04:20:42;;;;;;;7.47;4.53;;;2.60;99.90;;;;;;5006533;28;20420;-84
2022/04/11 04:23:08;;;;;;;7.35;4.43;;;2.60;99.90;;;;;;5003065;28;20380;-84
2022/04/11 04:25:35;;;;;;;7.07;5.05;;;2.70;99.90;;;;;;5015356;28;20061;-84
2022/04/11 04:28:02;;;;;;;9.07;5.38;;;2.70;99.90;;;;;;5003083;28;20037;-84
2022/04/11 04:30:34;;;;;;;8.68;4.72;;;2.70;99.90;;;;;;5007742;28;20037;-84
2022/04/11 04:32:59;;;;;;;6.47;4.60;;;2.70;99.90;;;;;;5009674;28;20042;-84
2022/04/11 04:35:27;;;;;;;10.50;5.28;;;2.80;99.90;;;;;;5005226;28;20049;-84
2022/04/11 04:37:53;;;;;;;6.45;5.00;;;2.80;99.90;;;;;;5005739;28;20045;-84
2022/04/11 04:40:19;;;;;;;9.50;5.10;;;2.90;99.90;;;;;;5026114;28;20058;-84
2022/04/11 04:42:45;;;;;;;9.27;5.18;;;2.90;99.90;;;;;;5027733;28;20066;-83
2022/04/11 04:45:12;;;;;;;9.52;5.25;;;3.00;99.90;;;;;;5024543;28;20499;-83
2022/04/11 04:47:38;;;;;;;8.15;5.47;;;3.00;99.90;;;;;;5022298;28;20049;-83
2022/04/11 04:50:04;;;;;;;10.23;6.00;;;3.00;99.90;;;;;;5010259;28;20045;-83
2022/04/11 04:52:30;;;;;;;10.60;6.13;;;3.00;99.90;;;;;;5109043;27;20485;-84
2022/04/11 04:54:55;;;;;;;11.40;5.40;;;3.00;99.90;;;;;;5005582;28;20049;-84
2022/04/11 04:57:21;;;;;;;8.65;5.30;;;3.10;99.90;;;;;;5005000;28;20157;-84
2022/04/11 04:59:47;;;;;;;10.05;5.70;;;3.10;99.90;;;;;;5005265;28;20054;-84
2022/04/11 05:02:12;;;;;;;8.23;5.45;;;3.10;99.90;;;;;;5002816;28;20034;-83
2022/04/11 05:04:38;;;;;;;7.78;5.55;;;3.10;99.90;;;;;;5006887;28;20085;-84
2022/04/11 05:07:04;;;;;;;10.45;6.68;;;3.10;99.90;;;;;;5004221;28;20042;-84
2022/04/11 05:09:29;;;;;;;9.52;6.40;;;3.20;99.90;;;;;;5004496;28;20058;-84
2022/04/11 05:11:55;;;;;;;11.38;7.10;;;3.20;99.90;;;;;;5004543;28;20054;-84
2022/04/11 05:14:20;;;;;;;9.85;6.70;;;3.30;99.90;;;;;;5005910;28;20048;-84
2022/04/11 05:16:46;;;;;;;10.10;6.47;;;3.40;99.90;;;;;;5004431;28;20258;-84
2022/04/11 05:19:12;;;;;;;9.80;7.05;;;3.50;99.90;;;;;;5005467;28;20042;-83
2022/04/11 05:21:37;;;;;;;13.18;7.43;;;3.40;99.90;;;;;;5002668;28;20069;-84
2022/04/11 05:24:03;;;;;;;11.18;7.55;;;3.50;99.90;;;;;;5006897;28;20071;-84
2022/04/11 05:26:29;;;;;;;10.90;6.75;;;3.50;99.90;;;;;;5003922;28;20551;-83
2022/04/11 05:28:54;;;;;;;10.63;6.70;;;3.50;99.90;;;;;;5002901;28;20057;-84
2022/04/11 05:31:20;;;;;;;10.48;7.47;;;3.60;99.90;;;;;;5005018;28;20033;-84
2022/04/11 05:33:46;;;;;;;8.52;6.78;;;3.60;99.90;;;;;;5004010;28;20107;-83
2022/04/11 05:36:14;;;;;;;9.77;6.90;;;3.70;99.90;;;;;;5007544;28;20091;-83
2022/04/11 05:38:40;;;;;;;10.02;6.57;;;3.70;99.90;;;;;;5008485;28;20049;-84
2022/04/11 05:41:05;;;;;;;10.65;6.63;;;3.70;99.90;;;;;;5009008;28;20091;-84
2022/04/11 05:43:31;;;;;;;12.05;6.80;;;3.80;99.90;;;;;;5005631;28;20124;-83
2022/04/11 05:45:57;;;;;;;9.20;6.72;;;3.80;99.90;;;;;;5005919;28;20502;-83
2022/04/11 05:48:22;;;;;;;9.38;7.25;;;3.90;99.90;;;;;;5006854;28;20077;-83
2022/04/11 05:50:48;;;;;;;11.43;7.10;;;3.90;99.90;;;;;;5008359;28;20041;-84
2022/04/11 05:53:13;;;;;;;11.77;7.40;;;3.90;99.90;;;;;;5006917;28;20042;-83
2022/04/11 05:55:39;;;;;;;10.02;6.82;;;4.00;99.90;;;;;;5008037;28;20053;-83
2022/04/11 05:58:05;;;;;;;9.70;6.95;;;4.00;99.90;;;;;;5007145;28;20579;-83
2022/04/11 06:00:30;;;;;;;9.88;6.68;;;4.10;99.90;;;;;;5004869;28;20378;-84
2022/04/11 06:02:56;;;;;;;9.93;7.35;;;4.10;99.90;;;;;;5007449;28;20374;-83
2022/04/11 06:05:21;;;;;;;11.70;6.97;;;4.20;99.90;;;;;;5006696;28;20037;-83
2022/04/11 06:07:47;;;;;;;13.13;7.18;;;4.20;99.90;;;;;;5005969;28;20050;-83
2022/04/11 06:10:13;;;;;;;11.82;6.72;;;4.30;99.90;;;;;;5005186;28;20574;-83
2022/04/11 06:12:39;;;;;;;11.57;6.70;;;4.30;99.90;;;;;;5006443;28;20041;-82
2022/04/11 06:15:06;;;;;;;9.55;6.88;;;4.40;99.90;;;;;;5007973;28;20046;-84
2022/04/11 06:17:34;;;;;;;8.98;6.80;;;4.40;99.90;;;;;;5111730;27;20129;-83
2022/04/11 06:20:01;;;;;;;9.00;6.93;;;4.50;99.90;;;;;;5012149;28;20050;-83
2022/04/11 06:22:27;;;;;;;11.07;6.97;;;4.50;99.90;;;;;;5017564;28;20258;-84
2022/04/11 06:25:00;;;;;;;13.45;6.93;;;4.50;99.90;;;;;;5005318;28;20145;-84
2022/04/11 06:27:27;;;;;;;9.25;6.53;;;4.60;99.90;;;;;;5009526;28;20042;-84
2022/04/11 06:29:56;;;;;;;11.95;6.60;;;4.60;99.90;;;;;;5007937;28;20057;-82
2022/04/11 06:32:29;;;;;;;10.55;7.40;;;4.70;99.90;;;;;;5004485;28;20097;-85
2022/04/11 06:34:56;;;;;;;13.50;6.82;;;4.70;99.90;;;;;;5007461;28;20046;-85
2022/04/11 06:37:23;;;;;;;9.98;7.22;;;4.80;99.90;;;;;;5005072;28;20065;-85
2022/04/11 06:39:49;;;;;;;10.63;7.35;;;4.80;99.90;;;;;;5008103;28;20053;-85
2022/04/11 06:42:15;;;;;;;8.80;6.95;;;4.90;99.90;;;;;;5006502;28;20622;-85
2022/04/11 06:44:40;;;;;;;13.27;7.80;;;4.90;99.90;;;;;;5003955;28;20108;-85
2022/04/11 06:47:08;;;;;;;11.77;8.52;;;5.00;99.90;;;;;;5002855;28;20557;-85
2022/04/11 06:49:34;;;;;;;;;;;5.10;99.90;;;;;;5002947;28;20042;-85
2022/04/11 06:52:00;;;;;;;12.23;9.00;;;5.10;99.90;;;;;;5006668;28;20340;-85
2022/04/11 06:54:25;;;;;;;11.98;8.70;;;5.20;99.90;;;;;;5021031;28;20045;-85
2022/04/11 06:56:51;;;;;;;11.27;7.75;;;5.30;99.90;;;;;;5004582;28;20050;-86
2022/04/11 06:59:16;;;;;;;11.52;7.18;;;5.50;99.90;;;;;;5007135;28;20038;-84
2022/04/11 07:01:42;;;;;;;10.65;7.25;;;5.60;99.90;;;;;;5007348;28;20615;-85
2022/04/11 07:04:08;;;;;;;10.63;7.07;;;5.60;99.90;;;;;;5004710;28;20098;-85
2022/04/11 07:06:34;;;;;;;12.50;7.95;;;5.70;99.90;;;;;;5004381;28;20038;-85
2022/04/11 07:09:00;;;;;;;10.10;7.50;;;5.80;99.90;;;;;;5005842;28;20045;-85
2022/04/11 07:11:25;;;;;;;11.25;7.78;;;5.90;99.90;;;;;;5005788;28;20111;-85
2022/04/11 07:13:51;;;;;;;12.57;7.32;;;5.90;99.90;;;;;;5002714;28;20095;-85
2022/04/11 07:16:16;;;;;;;13.82;7.88;;;6.00;99.90;;;;;;5005231;28;20077;-85
2022/04/11 07:18:42;;;;;;;12.55;7.53;;;6.10;99.90;;;;;;5003084;28;20046;-85
2022/04/11 07:21:08;;;;;;;10.32;6.78;;;6.10;99.90;;;;;;5004874;28;20077;-85
2022/04/11 07:23:33;;;;;;;11.23;7.47;;;6.10;99.90;;;;;;5004366;28;20191;-85
2022/04/11 07:25:59;;;;;;;10.85;7.70;;;6.20;99.90;;;;;;5001509;28;20037;-85
2022/04/11 07:28:25;;;;;;;12.40;7.70;;;6.20;99.90;;;;;;5009101;28;20046;-85
2022/04/11 07:30:51;;;;;;;10.65;8.00;;;6.30;99.90;;;;;;5006843;28;20046;-85
2022/04/11 07:33:16;;;;;;;11.50;7.47;;;6.30;99.90;;;;;;5007208;28;20077;-86
2022/04/11 07:35:42;;;;;;;11.00;7.75;;;6.40;99.90;;;;;;5005447;28;20053;-85
2022/04/11 07:38:07;;;;;;;11.40;7.47;;;6.40;99.90;;;;;;5004850;28;20038;-84
2022/04/11 07:40:33;;;;;;;11.13;8.15;;;6.40;99.90;;;;;;5002219;28;20045;-86
2022/04/11 07:42:58;;;;;;;11.05;7.80;;;6.50;99.90;;;;;;5011759;28;20162;-82
2022/04/11 07:45:24;;;;;;;11.95;7.45;;;6.50;99.90;;;;;;5001364;28;20050;-82
2022/04/11 07:47:50;;;;;;;11.82;7.40;;;6.60;99.90;;;;;;5020482;28;20040;-81
2022/04/11 07:50:15;;;;;;;12.50;8.27;;;6.60;99.90;;;;;;5040446;28;20042;-79
2022/04/11 07:52:43;;;;;;;12.52;7.82;;;6.70;99.90;;;;;;5006683;28;20085;-82
2022/04/11 07:55:10;;;;;;;11.90;7.65;;;6.70;99.90;;;;;;5005485;28;20054;-80
2022/04/11 07:57:37;;;;;;;10.98;7.95;;;6.80;99.90;;;;;;5004406;28;20397;-78
2022/04/11 08:00:06;;;;;;;12.80;8.45;;;6.90;99.90;;;;;;4997316;28;20038;-80
2022/04/11 08:02:32;;;;;;;13.32;9.30;;;6.90;99.90;;;;;;5105991;27;20045;-80
2022/04/11 08:05:02;;;;;;;10.50;8.30;;;7.00;99.90;;;;;;5004719;28;20053;-81
2022/04/11 08:07:32;;;;;;;12.02;8.27;;;7.10;99.90;;;;;;5006424;28;20085;-80
2022/04/11 08:09:58;;;;;;;12.38;7.85;;;7.10;99.90;;;;;;5006569;28;20614;-78
2022/04/11 08:12:24;;;;;;;11.30;7.97;;;7.30;99.90;;;;;;5022121;28;20048;-78
2022/04/11 08:14:49;;;;;;;11.13;8.23;;;7.30;99.90;;;;;;5040330;28;20044;-79
2022/04/11 08:17:15;;;;;;;10.93;7.90;;;7.40;99.90;;;;;;5108064;28;20052;-79
2022/04/11 08:19:41;;;;;;;11.27;8.10;;;7.50;99.90;;;;;;5089090;28;20420;-85
2022/04/11 08:22:06;;;;;;;11.63;8.48;;;7.60;99.90;;;;;;5006057;28;20046;-86
2022/04/11 08:24:32;;;;;;;10.55;7.82;;;7.70;99.90;;;;;;5006715;28;20038;-86
2022/04/11 08:26:58;;;;;;;12.40;8.45;;;7.80;99.90;;;;;;5007506;28;20034;-87
2022/04/11 08:29:27;;;;;;;12.80;9.30;;;7.90;99.90;;;;;;5006445;28;20041;-86
2022/04/11 08:31:53;;;;;;;10.35;8.23;;;8.00;99.90;;;;;;5007409;28;20063;-82
2022/04/11 08:34:19;;;;;;;12.02;7.85;;;8.10;99.90;;;;;;5041460;28;20045;-81
2022/04/11 08:36:44;;;;;;;12.82;7.88;;;8.20;99.90;;;;;;5005500;28;20046;-81
2022/04/11 08:39:11;;;;;;;10.63;7.93;;;8.30;99.90;;;;;;5006157;28;20586;-81
2022/04/11 08:41:36;;;;;;;10.68;7.72;;;8.40;99.90;;;;;;5027137;28;20462;-81
2022/04/11 08:44:07;;;;;;;10.73;8.13;;;8.50;99.90;;;;;;5082284;28;20086;-82
2022/04/11 08:46:34;;;;;;;12.02;7.72;;;8.60;99.90;;;;;;5008489;28;20054;-81
2022/04/11 08:49:04;;;;;;;11.10;7.65;;;8.70;99.90;;;;;;5008703;28;20054;-82
2022/04/11 08:51:32;;;;;;;10.40;7.95;;;8.80;99.90;;;;;;5001945;28;20163;-85
2022/04/11 08:54:01;;;;;;;9.38;7.60;;;8.90;99.90;;;;;;5006983;28;20042;-85
2022/04/11 08:56:28;;;;;;;11.70;7.60;;;9.10;99.90;;;;;;5005180;28;20475;-85
2022/04/11 08:58:54;;;;;;;11.45;7.47;;;9.20;99.90;;;;;;5007020;28;20065;-81
2022/04/11 09:01:20;;;;;;;12.13;7.57;;;9.30;99.90;;;;;;5006878;28;20667;-83
2022/04/11 09:03:46;;;;;;;9.52;6.93;;;9.40;99.90;;;;;;5023752;28;20056;-83
2022/04/11 09:06:15;;;;;;;8.20;6.55;;;9.50;99.90;;;;;;5025892;28;20042;-83
2022/04/11 09:08:51;;;;;;;10.25;6.28;;;9.50;99.90;;;;;;5020032;28;20455;-83
2022/04/11 09:11:29;;;;;;;9.93;6.85;;;9.60;99.90;;;;;;5007122;28;20125;-83
2022/04/11 09:13:55;;;;;;;;;;;9.70;99.90;;;;;;5006532;28;20488;-83
2022/04/11 09:16:20;;;;;;;8.38;6.00;;;9.80;99.90;;;;;;5006975;28;19921;-83
2022/04/11 09:18:50;;;;;;;9.98;5.82;;;9.90;99.90;;;;;;5006388;28;20440;-83
2022/04/11 09:21:16;;;;;;;9.73;5.70;;;9.90;98.20;;;;;;5005699;28;20050;-84
2022/04/11 09:23:42;;;;;;;10.30;5.40;;;10.00;97.20;;;;;;5008092;28;20454;-83
2022/04/11 09:26:22;;;;;;;9.23;5.22;;;10.00;95.80;;;;;;5025624;28;20018;-83
2022/04/11 09:29:00;;;;;;;7.15;4.28;;;10.00;96.10;;;;;;5025450;28;20051;-83
2022/04/11 09:31:27;;;;;;;8.52;5.40;;;10.10;95.40;;;;;;5029751;28;20443;-82
2022/04/11 09:33:53;;;;;;;10.70;5.95;;;10.10;93.20;;;;;;5012727;28;20418;-83
2022/04/11 09:36:20;;;;;;;10.13;6.10;;;10.20;94.50;;;;;;5008820;28;20059;-83
2022/04/11 09:38:59;;;;;;;9.75;5.28;;;10.30;94.00;;;;;;5008663;28;20046;-84
2022/04/11 09:41:34;;;;;;;8.45;4.93;;;10.40;91.40;;;;;;5006090;28;20050;-83
2022/04/11 09:44:20;;;;;;;9.00;5.50;;;10.40;87.10;;;;;;5006231;28;20044;-85
2022/04/11 09:46:46;;;;;;;9.32;5.93;;;10.50;81.60;;;;;;5006696;28;20050;-86
2022/04/11 09:49:12;;;;;;;10.65;7.05;;;10.50;85.40;;;;;;5005064;28;20098;-86
2022/04/11 09:51:57;;;;;;;9.98;5.93;;;10.60;82.90;;;;;;5007322;28;20105;-85
2022/04/11 09:54:26;;;;;;;9.82;6.57;;;10.70;78.50;;;;;;5007626;28;20446;-86
2022/04/11 09:56:54;;;;;;;11.43;6.55;;;10.80;78.40;;;;;;5006393;28;20126;-85
2022/04/11 09:59:22;;;;;;;8.88;6.40;;;10.80;77.00;;;;;;5004536;28;20042;-85
2022/04/11 10:01:50;;;;;;;8.52;6.43;;;10.90;79.00;;;;;;5009999;28;20539;-85
2022/04/11 10:04:21;;;;;;;9.93;6.18;;;11.00;77.60;;;;;;5023115;28;20051;-85
2022/04/11 10:06:47;;;;;;;11.23;6.50;;;11.10;77.60;;;;;;5039848;28;20075;-84
2022/04/11 10:09:15;;;;;;;11.07;6.75;;;11.10;75.70;;;;;;5004502;28;20049;-85
2022/04/11 10:11:44;;;;;;;9.80;7.18;;;11.20;76.00;;;;;;5006974;28;20581;-84
2022/04/11 10:14:12;;;;;;;10.65;7.22;;;11.30;70.80;;;;;;5005325;28;20457;-85
2022/04/11 10:16:44;;;;;;;10.00;6.57;;;11.30;69.50;;;;;;5007276;28;20042;-85
2022/04/11 10:19:11;;;;;;;11.35;7.13;;;11.30;70.00;;;;;;5005060;28;20042;-85
2022/04/11 10:21:41;;;;;;;11.13;6.78;;;11.40;68.40;;;;;;5010727;28;20087;-87
2022/04/11 10:24:27;;;;;;;11.00;6.78;;;11.40;68.90;;;;;;5005751;28;20075;-84
2022/04/11 10:26:55;;;;;;;11.32;6.93;;;11.50;69.40;;;;;;4994373;28;20084;-81
2022/04/11 10:29:37;;;;;;;10.85;7.25;;;11.60;71.50;;;;;;4994274;28;20048;-81
2022/04/11 10:32:46;;;;;;;11.73;7.45;;;11.70;71.30;;;;;;5008860;28;20508;-85
2022/04/11 10:35:11;;;;;;;10.95;7.00;;;11.80;65.80;;;;;;5033124;28;20057;-84
2022/04/11 10:37:41;;;;;;;14.50;9.50;;;11.80;65.80;;;;;;5009025;28;20424;-85
2022/04/11 10:40:15;;;;;;;11.70;7.43;;;11.80;66.60;;;;;;5022127;28;20095;-81
2022/04/11 10:43:08;;;;;;;11.38;7.97;;;11.80;65.80;;;;;;5008013;28;20081;-83
2022/04/11 10:45:41;;;;;;;9.88;7.38;;;12.00;64.60;;;;;;5022007;28;20125;-82
2022/04/11 10:48:11;;;;;;;11.07;6.97;;;12.00;65.40;;;;;;5008905;28;20060;-78
2022/04/11 10:50:39;;;;;;;11.57;7.00;;;12.20;65.70;;;;;;5007945;28;20042;-82
2022/04/11 10:53:27;;;;;;;;;;;12.30;64.90;;;;;;5007613;28;20058;-83
2022/04/11 10:56:02;;;;;;;11.13;7.63;;;12.30;66.00;;;;;;5004966;28;19994;-86
2022/04/11 10:58:50;;;;;;;11.88;7.53;;;12.40;64.50;;;;;;5007019;28;20053;-85
2022/04/11 11:01:46;;;;;;;14.02;8.00;;;12.50;61.60;;;;;;5030696;28;20060;-85
2022/04/11 11:04:17;;;;;;;12.43;7.80;;;12.50;60.70;;;;;;5008158;28;20046;-84
2022/04/11 11:06:42;;;;;;;13.40;8.00;;;12.50;61.80;;;;;;5005608;28;20088;-80
2022/04/11 11:09:15;;;;;;;9.65;7.10;;;12.60;61.20;;;;;;5006446;28;20073;-81
2022/04/11 11:11:48;;;;;;;12.13;7.40;;;12.60;60.30;;;;;;5008003;28;20042;-80
2022/04/11 11:14:40;;;;;;;11.40;7.47;;;12.70;59.40;;;;;;5007090;28;20141;-79
2022/04/11 11:17:06;;;;;;;12.20;7.60;;;12.70;61.20;;;;;;5006327;28;20053;-81
2022/04/11 11:20:03;;;;;;;11.98;8.23;;;12.80;61.40;;;;;;5005897;28;20045;-80
2022/04/11 11:22:31;;;;;;;;;;;12.90;60.80;;;;;;5003808;28;20091;-79
2022/04/11 11:25:17;;;;;;;11.77;8.35;;;12.90;60.50;;;;;;5009332;28;20038;-82
2022/04/11 11:27:44;;;;;;;12.13;8.80;;;13.00;60.90;;;;;;5009555;28;20446;-83
2022/04/11 11:30:11;;;;;;;12.60;8.40;;;13.00;61.00;;;;;;5007126;28;20045;-83
2022/04/11 11:32:40;;;;;;;11.53;8.20;;;13.10;58.40;;;;;;5007655;28;20042;-86
2022/04/11 11:35:08;;;;;;;12.60;8.45;;;13.10;59.20;;;;;;5003071;28;20308;-82
2022/04/11 11:37:34;;;;;;;12.07;8.77;;;13.20;59.50;;;;;;5007161;28;21505;-85
2022/04/11 11:40:03;;;;;;;12.27;8.45;;;13.30;59.10;;;;;;5003033;28;20042;-85
2022/04/11 11:42:35;;;;;;;10.40;8.07;;;13.40;58.80;;;;;;5020966;28;20122;-85
2022/04/11 11:45:02;;;;;;;10.80;8.50;;;13.40;59.50;;;;;;5007183;28;20048;-84
2022/04/11 11:47:28;;;;;;;10.30;8.27;;;13.50;59.80;;;;;;5009342;28;20474;-82
2022/04/11 11:50:05;;;;;;;10.77;8.43;;;13.50;58.50;;;;;;5013364;28;20338;-86
2022/04/11 11:52:31;;;;;;;11.53;8.87;;;13.60;58.20;;;;;;5027445;28;20052;-86
2022/04/11 11:54:56;;;;;;;11.35;8.52;;;13.70;57.50;;;;;;5027013;28;20045;-86
2022/04/11 11:57:30;;;;;;;12.80;9.07;;;13.70;56.10;;;;;;5025404;28;20127;-86
2022/04/11 12:00:04;;;;;;;12.20;8.75;;;13.80;56.70;;;;;;5029122;28;20075;-86
2022/04/11 12:05:24;;;;;;;;;;;13.90;57.70;;;;;;5021244;28;20041;-87
2022/04/11 12:08:02;;;;;;;11.95;8.60;;;14.00;57.80;;;;;;5008264;28;20016;-87
2022/04/11 12:10:28;;;;;;;16.33;9.07;;;14.00;56.70;;;;;;5009878;28;20483;-86
2022/04/11 12:12:54;;;;;;;11.23;9.13;;;14.10;56.30;;;;;;5011072;28;20138;-77
2022/04/11 12:15:23;;;;;;;11.13;8.30;;;14.10;54.40;;;;;;5007812;28;20052;-85
2022/04/11 12:17:59;;;;;;;14.48;8.73;;;14.00;55.50;;;;;;5005493;28;20129;-85
2022/04/11 12:20:25;;;;;;;10.95;8.65;;;14.10;55.50;;;;;;5006865;28;20038;-85
2022/04/11 12:23:13;;;;;;;10.27;8.40;;;14.20;55.70;;;;;;5004480;28;20133;-84
2022/04/11 12:25:47;;;;;;;11.73;8.45;;;14.30;54.90;;;;;;5005421;28;20084;-84
2022/04/11 12:28:24;;;;;;;10.95;8.52;;;14.30;54.40;;;;;;5004238;28;20038;-84
2022/04/11 12:31:12;;;;;;;12.45;8.63;;;14.40;54.80;;;;;;5008598;28;20121;-84
2022/04/11 12:33:42;;;;;;;14.18;9.45;;;14.40;54.90;;;;;;5005714;28;20120;-81
2022/04/11 12:36:11;;;;;;;12.20;9.55;;;14.40;54.70;;;;;;5004430;28;20049;-79
2022/04/11 12:39:00;;;;;;;13.10;9.75;;;14.50;55.30;;;;;;5005524;28;20052;-80
2022/04/11 12:41:32;;;;;;;13.32;9.27;;;14.50;54.60;;;;;;5006628;28;20060;-80
2022/04/11 12:43:58;;;;;;;11.57;9.30;;;14.60;54.70;;;;;;5005460;28;20481;-80
2022/04/11 12:46:24;;;;;;;13.77;9.57;;;14.60;53.20;;;;;;5005678;28;20054;-80
2022/04/11 12:48:57;;;;;;;10.95;9.50;;;14.60;52.20;;;;;;5004993;28;20136;-80
2022/04/11 12:51:23;;;;;;;12.32;9.15;;;14.50;52.60;;;;;;5004781;28;20150;-80
2022/04/11 12:53:49;;;;;;;10.73;9.25;;;14.50;53.00;;;;;;5004957;28;20103;-83
2022/04/11 12:56:15;;;;;;;13.10;9.45;;;14.50;52.70;;;;;;5006053;28;20085;-84
2022/04/11 12:58:40;;;;;;;11.48;9.82;;;14.60;53.00;;;;;;5007474;28;20046;-83